Time;durP1;ratioP1;P1;durP2;ratioP2;P2;SDS_P1;SDS_P2;PMS_P1;PMS_P2;Temp;Humidity;BMP_temperature;BMP_pressure;BME280_temperature;BME280_humidity;BME280_pressure;Samples;Min_cycle;Max_cycle;Signal;HPM_P1;HPM_P2
2023/10/08 00:02:39;;;;;;;0.70;0.15;;;14.00;99.90;;;;;;4231841;28;20055;-81
2023/10/08 00:04:40;;;;;;;1.20;0.08;;;14.00;99.90;;;;;;4231847;27;20464;-81
2023/10/08 00:06:41;;;;;;;0.28;0.10;;;14.00;99.90;;;;;;4231033;28;20419;-81
2023/10/08 00:08:42;;;;;;;1.75;0.28;;;14.10;99.90;;;;;;4231721;28;20399;-81
2023/10/08 00:10:44;;;;;;;0.80;0.13;;;14.00;99.90;;;;;;4227551;28;20043;-81
2023/10/08 00:12:47;;;;;;;1.88;0.30;;;14.10;99.90;;;;;;4225686;28;20054;-81
2023/10/08 00:14:53;;;;;;;0.80;0.10;;;14.10;99.90;;;;;;4213391;28;20036;-81
2023/10/08 00:16:54;;;;;;;1.55;0.10;;;14.10;99.90;;;;;;4214919;28;20039;-80
2023/10/08 00:18:59;;;;;;;0.73;0.15;;;14.10;99.90;;;;;;4214790;28;20051;-81
2023/10/08 00:23:15;;;;;;;0.45;0.10;;;14.10;99.90;;;;;;4214829;28;20135;-81
2023/10/08 00:25:16;;;;;;;0.40;0.10;;;14.10;99.90;;;;;;4214987;28;20408;-81
2023/10/08 00:27:17;;;;;;;0.40;0.10;;;14.10;99.90;;;;;;4214821;28;20051;-80
2023/10/08 00:29:21;;;;;;;1.45;0.20;;;14.00;99.90;;;;;;4215037;28;20083;-81
2023/10/08 00:31:30;;;;;;;1.17;0.10;;;14.00;99.90;;;;;;4227892;28;20089;-81
2023/10/08 00:33:31;;;;;;;0.75;0.15;;;14.00;99.90;;;;;;4232088;28;20043;-80
2023/10/08 00:35:37;;;;;;;2.42;0.30;;;14.00;99.90;;;;;;4231447;28;20071;-81
2023/10/08 00:37:38;;;;;;;0.38;0.10;;;14.00;99.90;;;;;;4231450;28;20490;-81
2023/10/08 00:39:40;;;;;;;2.03;0.20;;;14.00;99.90;;;;;;4230555;28;20059;-80
2023/10/08 00:41:43;;;;;;;1.15;0.43;;;14.10;99.90;;;;;;4231262;28;20055;-81
2023/10/08 00:43:45;;;;;;;1.58;0.10;;;14.10;99.90;;;;;;4245945;28;20035;-80
2023/10/08 00:45:50;;;;;;;0.60;0.20;;;14.00;99.90;;;;;;4244889;28;20058;-80
2023/10/08 00:47:54;;;;;;;0.10;0.10;;;13.50;99.90;;;;;;4225234;28;20047;-81
2023/10/08 00:50:06;;;;;;;0.90;0.30;;;14.00;99.90;;;;;;4231456;28;20079;-81
2023/10/08 00:54:17;;;;;;;1.05;0.38;;;14.10;99.90;;;;;;4248264;28;20150;-81
2023/10/08 00:56:19;;;;;;;1.15;0.20;;;14.00;99.90;;;;;;4248254;27;20035;-81
2023/10/08 00:58:27;;;;;;;0.35;0.28;;;14.00;99.90;;;;;;4248189;27;20055;-81
2023/10/08 01:00:42;;;;;;;1.48;0.30;;;14.00;99.90;;;;;;4248140;28;20483;-81
2023/10/08 01:02:48;;;;;;;0.98;0.40;;;14.00;99.90;;;;;;4230816;28;20054;-81
2023/10/08 01:04:50;;;;;;;1.20;0.20;;;13.90;99.90;;;;;;4231925;28;20048;-81
2023/10/08 01:06:59;;;;;;;1.23;0.47;;;13.90;99.90;;;;;;4240331;28;20052;-81
2023/10/08 01:09:17;;;;;;;2.00;0.30;;;13.90;99.90;;;;;;4231246;28;20059;-81
2023/10/08 01:14:02;;;;;;;0.90;0.25;;;13.90;99.90;;;;;;4178761;28;20505;-81
2023/10/08 01:16:03;;;;;;;1.27;0.45;;;13.90;99.90;;;;;;4178946;28;20052;-81
2023/10/08 01:18:08;;;;;;;2.28;0.38;;;13.90;99.90;;;;;;4178355;28;20052;-80
2023/10/08 01:20:20;;;;;;;1.60;0.40;;;13.90;99.90;;;;;;4212062;28;20064;-81
2023/10/08 01:22:22;;;;;;;3.15;0.40;;;13.90;99.90;;;;;;4230924;28;20071;-80
2023/10/08 01:24:24;;;;;;;2.35;0.22;;;13.90;99.90;;;;;;4212555;28;20147;-81
2023/10/08 01:26:25;;;;;;;5.05;0.40;;;13.90;99.90;;;;;;4242159;28;20043;-81
2023/10/08 01:28:26;;;;;;;0.70;0.20;;;13.90;99.90;;;;;;4247870;28;20475;-81
2023/10/08 01:30:34;;;;;;;1.58;0.40;;;13.90;99.90;;;;;;4247865;28;20044;-81
2023/10/08 01:32:35;;;;;;;3.45;0.70;;;13.80;99.90;;;;;;4230344;28;20144;-80
2023/10/08 01:34:36;;;;;;;1.25;0.20;;;13.80;99.90;;;;;;4247658;28;20484;-81
2023/10/08 01:36:37;;;;;;;3.35;0.35;;;13.80;99.90;;;;;;4247474;27;20043;-80
2023/10/08 01:38:38;;;;;;;2.08;0.30;;;13.80;99.90;;;;;;4229627;28;20043;-80
2023/10/08 01:40:50;;;;;;;5.82;0.50;;;13.80;99.90;;;;;;4228945;28;20051;-80
2023/10/08 01:42:51;;;;;;;2.17;0.40;;;13.80;99.90;;;;;;4234254;28;20051;-80
2023/10/08 01:44:54;;;;;;;1.95;0.40;;;13.80;99.90;;;;;;4230781;28;20073;-81
2023/10/08 01:46:58;;;;;;;10.05;1.42;;;13.80;99.90;;;;;;4230457;28;20129;-81
2023/10/08 01:49:08;;;;;;;4.95;0.35;;;13.80;99.90;;;;;;4212447;28;20477;-81
2023/10/08 01:51:11;;;;;;;2.88;0.52;;;13.80;99.90;;;;;;4230138;28;20081;-81
2023/10/08 01:53:12;;;;;;;7.53;0.73;;;13.80;99.90;;;;;;4230667;28;20052;-81
2023/10/08 01:55:17;;;;;;;4.07;0.40;;;13.80;99.90;;;;;;4212283;28;20048;-80
2023/10/08 01:57:18;;;;;;;2.17;0.20;;;13.80;99.90;;;;;;4212317;28;20040;-81
2023/10/08 01:59:18;;;;;;;5.35;0.47;;;13.80;99.90;;;;;;4216930;28;20189;-81
2023/10/08 02:01:20;;;;;;;8.82;0.65;;;13.80;99.90;;;;;;4230360;28;20430;-81
2023/10/08 02:03:22;;;;;;;2.55;0.60;;;13.80;99.90;;;;;;4212295;28;20059;-81
2023/10/08 02:05:23;;;;;;;5.30;0.55;;;13.80;99.90;;;;;;4212331;28;20052;-80
2023/10/08 02:07:24;;;;;;;5.72;1.25;;;13.80;99.90;;;;;;4230527;28;20154;-80
2023/10/08 02:09:26;;;;;;;4.03;0.55;;;13.80;99.90;;;;;;4212225;28;20044;-80
2023/10/08 02:11:27;;;;;;;4.25;0.60;;;13.80;99.90;;;;;;4212114;28;20596;-81
2023/10/08 02:13:28;;;;;;;4.53;0.30;;;13.70;99.90;;;;;;4212211;28;20079;-80
2023/10/08 02:15:30;;;;;;;1.42;0.22;;;13.70;99.90;;;;;;4214029;28;20512;-80
2023/10/08 02:17:32;;;;;;;5.68;0.65;;;13.70;99.90;;;;;;4203338;28;20051;-81
2023/10/08 02:19:35;;;;;;;4.82;0.70;;;13.70;99.90;;;;;;4215055;28;20072;-80
2023/10/08 02:21:39;;;;;;;2.40;0.52;;;13.70;99.90;;;;;;4215078;28;20070;-81
2023/10/08 02:23:40;;;;;;;3.47;0.43;;;13.70;99.90;;;;;;4214797;28;20527;-81
2023/10/08 02:25:41;;;;;;;2.90;0.50;;;13.70;99.90;;;;;;4215461;28;20081;-81
2023/10/08 02:27:42;;;;;;;2.33;0.50;;;13.60;99.90;;;;;;4233211;28;20492;-81
2023/10/08 02:29:43;;;;;;;2.55;0.40;;;13.70;99.90;;;;;;4233169;28;20127;-81
2023/10/08 02:31:43;;;;;;;4.22;0.55;;;13.70;99.90;;;;;;4232895;28;20050;-81
2023/10/08 02:33:44;;;;;;;3.08;0.60;;;13.70;99.90;;;;;;4233621;27;20055;-80
2023/10/08 02:35:46;;;;;;;5.15;1.35;;;13.70;99.90;;;;;;4249425;27;20039;-80
2023/10/08 02:37:47;;;;;;;5.85;0.63;;;13.70;99.90;;;;;;4214946;28;20588;-80
2023/10/08 02:39:48;;;;;;;3.40;0.57;;;13.70;99.90;;;;;;4214755;28;20056;-80
2023/10/08 02:41:49;;;;;;;3.00;0.50;;;13.70;99.90;;;;;;4214657;28;20048;-80
2023/10/08 02:43:50;;;;;;;4.05;0.50;;;13.70;99.90;;;;;;4249857;27;20450;-80
2023/10/08 02:45:55;;;;;;;4.47;0.60;;;13.70;99.90;;;;;;4249646;27;20050;-81
2023/10/08 02:47:57;;;;;;;3.38;0.63;;;13.70;99.90;;;;;;4214237;28;20060;-80
2023/10/08 02:49:58;;;;;;;5.85;1.27;;;13.70;99.90;;;;;;4249452;27;20118;-80
2023/10/08 02:51:59;;;;;;;2.70;0.50;;;13.60;99.90;;;;;;4243735;27;20394;-81
2023/10/08 02:54:00;;;;;;;3.28;0.68;;;13.60;99.90;;;;;;4233081;27;20050;-80
2023/10/08 02:56:06;;;;;;;2.65;0.60;;;13.60;99.90;;;;;;4214822;28;20044;-80
2023/10/08 02:58:10;;;;;;;6.80;0.55;;;13.60;99.90;;;;;;4231393;28;20043;-81
2023/10/08 03:00:13;;;;;;;2.38;0.50;;;13.60;99.90;;;;;;4232222;28;20058;-81
2023/10/08 03:02:24;;;;;;;3.60;0.80;;;13.00;99.90;;;;;;4246088;27;20046;-80
2023/10/08 03:04:27;;;;;;;3.35;0.30;;;13.60;99.90;;;;;;4249951;27;20098;-80
2023/10/08 03:06:31;;;;;;;3.60;0.75;;;13.60;99.90;;;;;;4249677;27;20066;-81
2023/10/08 03:08:36;;;;;;;7.47;0.93;;;13.60;99.90;;;;;;4241048;27;20040;-81
2023/10/08 03:10:38;;;;;;;2.28;0.38;;;13.60;99.90;;;;;;4214285;28;20548;-81
2023/10/08 03:12:39;;;;;;;3.58;0.50;;;13.60;99.90;;;;;;4232414;28;20067;-81
2023/10/08 03:15:01;;;;;;;4.57;0.55;;;13.60;99.90;;;;;;4221634;28;20396;-81
2023/10/08 03:17:07;;;;;;;6.30;0.65;;;13.60;99.90;;;;;;4247115;27;20047;-81
2023/10/08 03:19:08;;;;;;;2.10;0.95;;;13.60;99.90;;;;;;4232332;28;20065;-81
2023/10/08 03:21:22;;;;;;;4.43;0.57;;;13.60;99.90;;;;;;4244459;27;20082;-81
2023/10/08 03:23:33;;;;;;;1.10;0.40;;;13.60;99.90;;;;;;4249476;27;20046;-81
2023/10/08 03:25:41;;;;;;;6.05;0.80;;;13.60;99.90;;;;;;4228775;28;20039;-81
2023/10/08 03:27:42;;;;;;;2.80;0.63;;;13.60;99.90;;;;;;4235903;27;20046;-81
2023/10/08 03:29:42;;;;;;;4.13;0.77;;;13.60;99.90;;;;;;4249317;27;20375;-81
2023/10/08 03:33:51;;;;;;;5.75;0.50;;;13.60;99.90;;;;;;4249337;27;20087;-81
2023/10/08 03:35:52;;;;;;;2.95;0.50;;;13.60;99.90;;;;;;4230545;28;20047;-81
2023/10/08 03:37:54;;;;;;;4.07;1.42;;;13.40;99.90;;;;;;4249160;27;20047;-81
2023/10/08 03:40:22;;;;;;;4.10;0.68;;;13.60;99.90;;;;;;4249051;27;20118;-80
2023/10/08 03:42:24;;;;;;;2.92;0.40;;;13.60;99.90;;;;;;4230671;28;20050;-81
2023/10/08 03:44:25;;;;;;;4.78;0.65;;;13.60;99.90;;;;;;4249167;27;20043;-81
2023/10/08 03:46:26;;;;;;;2.45;0.50;;;13.60;99.90;;;;;;4243868;27;20042;-81
2023/10/08 03:48:32;;;;;;;2.58;0.52;;;13.60;99.90;;;;;;4248312;27;20395;-81
2023/10/08 03:50:40;;;;;;;4.53;0.60;;;13.60;99.90;;;;;;4248726;27;20134;-81
2023/10/08 03:52:43;;;;;;;3.38;0.73;;;13.70;99.90;;;;;;4248806;27;20054;-81
2023/10/08 03:54:48;;;;;;;2.72;0.68;;;13.60;99.90;;;;;;4248652;27;20043;-80
2023/10/08 03:56:51;;;;;;;1.40;0.60;;;13.60;99.90;;;;;;4248968;27;20039;-81
2023/10/08 03:58:54;;;;;;;1.85;0.50;;;13.60;99.90;;;;;;4248797;27;20430;-81
2023/10/08 04:01:08;;;;;;;4.15;0.60;;;13.60;99.90;;;;;;4248883;27;20066;-81
2023/10/08 04:03:11;;;;;;;2.95;0.57;;;13.60;99.90;;;;;;4242649;27;20129;-81
2023/10/08 04:05:19;;;;;;;5.15;0.73;;;13.60;99.90;;;;;;4230338;28;20075;-80
2023/10/08 04:07:24;;;;;;;2.70;0.60;;;13.60;99.90;;;;;;4230473;28;20124;-81
2023/10/08 04:09:25;;;;;;;1.63;0.70;;;13.60;99.90;;;;;;4248773;27;20042;-81
2023/10/08 04:11:35;;;;;;;6.68;0.80;;;13.60;99.90;;;;;;4248638;27;20070;-81
2023/10/08 04:13:45;;;;;;;1.45;0.77;;;13.50;99.90;;;;;;4248592;27;20072;-81
2023/10/08 04:15:46;;;;;;;3.55;0.70;;;13.50;99.90;;;;;;4248575;27;20054;-80
2023/10/08 04:17:50;;;;;;;5.28;0.80;;;13.50;99.90;;;;;;4247836;27;20043;-81
2023/10/08 04:19:51;;;;;;;4.25;0.75;;;13.50;99.90;;;;;;4225158;28;20047;-80
2023/10/08 04:21:55;;;;;;;6.07;1.00;;;13.50;99.90;;;;;;4235399;27;20048;-80
2023/10/08 04:23:57;;;;;;;2.67;0.93;;;13.50;99.90;;;;;;4231553;28;20039;-81
2023/10/08 04:25:58;;;;;;;2.53;0.68;;;13.50;99.90;;;;;;4231484;28;20065;-80
2023/10/08 04:28:00;;;;;;;5.43;1.02;;;13.50;99.90;;;;;;4213062;28;20048;-81
2023/10/08 04:30:01;;;;;;;2.33;0.85;;;13.50;99.90;;;;;;4231410;28;20043;-80
2023/10/08 04:32:07;;;;;;;2.40;1.02;;;13.50;99.90;;;;;;4231441;28;20075;-81
2023/10/08 04:34:17;;;;;;;8.70;0.90;;;13.50;99.90;;;;;;4231383;28;20081;-81
2023/10/08 04:36:19;;;;;;;3.55;0.82;;;13.50;99.90;;;;;;4230835;28;20035;-81
2023/10/08 04:38:36;;;;;;;3.75;1.05;;;13.50;99.90;;;;;;4218222;28;20544;-81
2023/10/08 04:40:48;;;;;;;4.03;0.95;;;13.50;99.90;;;;;;4229849;28;20565;-81
2023/10/08 04:42:48;;;;;;;3.83;0.70;;;13.50;99.90;;;;;;4248198;27;20119;-81
2023/10/08 04:44:49;;;;;;;4.72;1.05;;;13.50;99.90;;;;;;4248290;27;20043;-81
2023/10/08 04:46:52;;;;;;;4.53;1.58;;;13.50;99.90;;;;;;4247545;27;20043;-82
2023/10/08 04:48:53;;;;;;;7.97;0.90;;;13.50;99.90;;;;;;4242179;27;20051;-81
2023/10/08 04:50:59;;;;;;;5.30;0.90;;;13.50;99.90;;;;;;4247850;27;20154;-81
2023/10/08 04:53:01;;;;;;;3.13;1.30;;;13.50;99.90;;;;;;4248192;27;20101;-81
2023/10/08 04:55:12;;;;;;;3.50;0.80;;;13.50;99.90;;;;;;4247550;27;20075;-81
2023/10/08 04:57:16;;;;;;;7.60;1.08;;;13.50;99.90;;;;;;4242049;27;20053;-81
2023/10/08 04:59:21;;;;;;;6.05;0.88;;;13.50;99.90;;;;;;4229965;28;20452;-81
2023/10/08 05:01:38;;;;;;;6.07;1.15;;;13.50;99.90;;;;;;4238764;28;20046;-81
2023/10/08 05:03:49;;;;;;;3.28;0.90;;;13.40;99.90;;;;;;4239158;27;20055;-81
2023/10/08 05:06:16;;;;;;;10.95;1.13;;;13.40;99.90;;;;;;4247567;28;20068;-81
2023/10/08 05:08:28;;;;;;;7.60;0.98;;;13.40;99.90;;;;;;4247362;28;20399;-81
2023/10/08 05:16:44;;;;;;;6.25;0.70;;;13.30;99.90;;;;;;4229022;28;20059;-81
2023/10/08 05:19:07;;;;;;;8.50;1.10;;;13.40;99.90;;;;;;4247810;28;20043;-81
2023/10/08 05:21:25;;;;;;;4.40;1.13;;;13.30;99.90;;;;;;4247833;28;20084;-81
2023/10/08 05:25:40;;;;;;;4.97;0.77;;;13.30;99.90;;;;;;4219484;28;20058;-81
2023/10/08 05:30:10;;;;;;;5.63;0.70;;;13.30;99.90;;;;;;4230980;28;20059;-81
2023/10/08 05:32:38;;;;;;;4.07;0.95;;;13.30;99.90;;;;;;4230569;28;20308;-81
2023/10/08 05:34:42;;;;;;;3.75;0.70;;;13.30;99.90;;;;;;4230225;28;20048;-81
2023/10/08 05:41:38;;;;;;;4.60;0.55;;;13.30;99.90;;;;;;4230857;28;20503;-81
2023/10/08 05:45:52;;;;;;;9.43;1.50;;;13.20;99.90;;;;;;4244827;28;20055;-81
2023/10/08 05:48:14;;;;;;;6.28;0.80;;;13.20;99.90;;;;;;4247634;28;20047;-81
2023/10/08 05:52:27;;;;;;;3.00;0.88;;;13.20;99.90;;;;;;4250391;27;20152;-81
2023/10/08 05:56:52;;;;;;;6.57;0.95;;;13.20;99.90;;;;;;4232825;28;20057;-81
2023/10/08 05:59:14;;;;;;;5.25;0.77;;;13.20;99.90;;;;;;4250364;27;20096;-80
2023/10/08 06:01:26;;;;;;;2.67;0.85;;;13.20;99.90;;;;;;4248576;27;20424;-81
2023/10/08 06:03:59;;;;;;;2.45;0.57;;;13.10;99.90;;;;;;4248668;27;20484;-80
2023/10/08 06:08:38;;;;;;;4.78;1.15;;;13.10;99.90;;;;;;4250662;27;20058;-80
2023/10/08 06:12:49;;;;;;;5.13;0.90;;;13.10;99.90;;;;;;4233458;28;20043;-81
2023/10/08 06:15:06;;;;;;;6.43;0.85;;;13.10;99.90;;;;;;4233439;28;20122;-81
2023/10/08 06:17:23;;;;;;;4.60;0.80;;;13.10;99.90;;;;;;4233494;28;20434;-80
2023/10/08 06:19:25;;;;;;;4.03;1.25;;;13.10;99.90;;;;;;4233108;28;20058;-81
2023/10/08 06:21:26;;;;;;;5.20;0.77;;;13.10;99.90;;;;;;4233420;28;20048;-81
2023/10/08 06:23:31;;;;;;;5.22;1.25;;;13.10;99.90;;;;;;4233884;27;20044;-80
2023/10/08 06:25:33;;;;;;;4.68;0.70;;;13.10;99.90;;;;;;4246601;27;20039;-80
2023/10/08 06:27:33;;;;;;;6.05;0.90;;;13.60;99.90;;;;;;4244022;27;20050;-80
2023/10/08 06:29:34;;;;;;;3.63;0.90;;;13.10;99.90;;;;;;4245131;27;20396;-80
2023/10/08 06:31:35;;;;;;;3.40;0.90;;;13.20;99.90;;;;;;4249552;27;20046;-81
2023/10/08 06:33:40;;;;;;;7.55;1.00;;;13.20;99.90;;;;;;4250235;27;20052;-80
2023/10/08 06:36:02;;;;;;;8.88;1.70;;;13.10;99.90;;;;;;4249361;27;20055;-80
2023/10/08 06:38:09;;;;;;;2.75;0.90;;;13.30;99.90;;;;;;4249343;27;20376;-81
2023/10/08 06:40:40;;;;;;;7.28;1.02;;;13.30;99.90;;;;;;4231779;28;20100;-80
2023/10/08 06:42:35;;;;;;;8.60;0.80;;;13.30;99.90;;;;;;4249709;27;20035;-80
2023/10/08 06:44:37;;;;;;;4.57;0.80;;;13.30;99.90;;;;;;4249324;27;20047;-80
2023/10/08 06:46:39;;;;;;;3.92;0.70;;;13.80;99.90;;;;;;4250127;27;20043;-80
2023/10/08 06:48:45;;;;;;;7.53;1.00;;;13.30;99.90;;;;;;4239819;27;20082;-81
2023/10/08 06:50:47;;;;;;;4.65;0.90;;;13.40;99.90;;;;;;4214368;28;20056;-81
2023/10/08 06:52:49;;;;;;;9.85;1.33;;;13.40;99.90;;;;;;4214448;28;20055;-80
2023/10/08 06:54:50;;;;;;;9.15;0.85;;;13.40;99.90;;;;;;4232485;28;20040;-80
2023/10/08 06:56:55;;;;;;;5.57;1.40;;;13.40;99.90;;;;;;4215607;28;20128;-80
2023/10/08 06:58:55;;;;;;;7.95;1.23;;;13.40;99.90;;;;;;4249785;27;20443;-80
2023/10/08 07:00:58;;;;;;;4.40;0.70;;;13.50;99.90;;;;;;4243218;27;20054;-80
2023/10/08 07:03:01;;;;;;;5.43;1.20;;;13.40;99.90;;;;;;4226040;28;20040;-81
2023/10/08 07:05:09;;;;;;;8.32;1.23;;;13.50;99.90;;;;;;4232808;28;20104;-80
2023/10/08 07:07:09;;;;;;;12.13;1.85;;;13.50;99.90;;;;;;4215200;28;20044;-80
2023/10/08 07:09:22;;;;;;;4.22;0.77;;;13.60;99.90;;;;;;4232589;28;20051;-80
2023/10/08 07:11:23;;;;;;;8.05;1.20;;;13.70;99.90;;;;;;4217760;28;20040;-80
2023/10/08 07:13:24;;;;;;;6.60;1.10;;;13.60;99.90;;;;;;4249554;27;20387;-80
2023/10/08 07:15:26;;;;;;;8.77;1.25;;;13.70;99.90;;;;;;4249582;27;20092;-80
2023/10/08 07:17:36;;;;;;;6.05;1.02;;;13.70;99.90;;;;;;4231577;28;20043;-80
2023/10/08 07:19:37;;;;;;;4.00;0.80;;;13.80;99.90;;;;;;4249060;27;20047;-80
2023/10/08 07:21:44;;;;;;;6.78;0.93;;;13.80;99.90;;;;;;4248784;27;20415;-80
2023/10/08 07:23:57;;;;;;;9.07;1.13;;;13.80;99.90;;;;;;4231185;28;20134;-81
2023/10/08 07:26:18;;;;;;;5.22;1.10;;;13.90;99.90;;;;;;4249208;27;20050;-80
2023/10/08 07:28:19;;;;;;;10.00;0.68;;;13.90;99.90;;;;;;4242512;27;20078;-80
2023/10/08 07:30:26;;;;;;;4.72;1.30;;;13.90;99.90;;;;;;4230805;28;20523;-80
2023/10/08 07:32:27;;;;;;;10.18;1.30;;;13.90;99.90;;;;;;4249177;27;20066;-80
2023/10/08 07:34:31;;;;;;;4.82;0.65;;;13.90;99.90;;;;;;4249237;27;20047;-80
2023/10/08 07:36:32;;;;;;;7.70;1.00;;;13.80;99.90;;;;;;4249281;27;20387;-81
2023/10/08 07:38:35;;;;;;;7.45;1.40;;;13.80;99.90;;;;;;4249135;27;20039;-80
2023/10/08 07:40:37;;;;;;;4.47;0.77;;;13.80;99.90;;;;;;4248730;27;20073;-80
2023/10/08 07:42:38;;;;;;;14.35;2.10;;;13.80;99.90;;;;;;4248688;27;20062;-80
2023/10/08 07:44:38;;;;;;;9.48;1.95;;;13.80;99.90;;;;;;4242901;27;20050;-80
2023/10/08 07:46:39;;;;;;;3.17;1.30;;;13.80;99.90;;;;;;4248974;27;20043;-81
2023/10/08 07:48:42;;;;;;;5.47;1.67;;;13.80;99.90;;;;;;4248993;27;20058;-81
2023/10/08 07:50:45;;;;;;;4.38;0.80;;;13.90;99.90;;;;;;4230196;28;20519;-80
2023/10/08 07:52:46;;;;;;;3.80;0.90;;;13.90;99.90;;;;;;4248455;27;20050;-80
2023/10/08 07:54:47;;;;;;;5.88;0.88;;;13.90;99.90;;;;;;4230356;28;20063;-81
2023/10/08 07:56:49;;;;;;;8.30;1.23;;;13.90;99.90;;;;;;4240548;27;20043;-81
2023/10/08 07:58:56;;;;;;;13.85;1.15;;;13.90;99.90;;;;;;4241126;27;20043;-81
2023/10/08 08:01:00;;;;;;;5.97;0.93;;;13.90;99.90;;;;;;4246378;27;20047;-80
2023/10/08 08:03:04;;;;;;;5.72;1.05;;;14.00;99.90;;;;;;4242139;27;20099;-81
2023/10/08 08:05:05;;;;;;;5.88;0.80;;;14.10;99.90;;;;;;4227134;28;20054;-81
2023/10/08 08:07:07;;;;;;;8.63;1.65;;;14.40;99.90;;;;;;4234037;27;20063;-81
2023/10/08 08:09:19;;;;;;;4.03;0.70;;;14.90;99.90;;;;;;4244633;27;20085;-81
2023/10/08 08:11:25;;;;;;;4.25;1.02;;;15.20;99.90;;;;;;4236662;27;20071;-81
2023/10/08 08:13:27;;;;;;;7.80;0.88;;;15.30;99.90;;;;;;4241044;27;20043;-81
2023/10/08 08:15:29;;;;;;;5.18;0.70;;;15.30;99.90;;;;;;4243969;27;20039;-81
2023/10/08 08:17:30;;;;;;;7.28;1.05;;;15.30;99.90;;;;;;4223002;28;20508;-81
2023/10/08 08:19:31;;;;;;;6.47;0.85;;;15.00;99.90;;;;;;4237942;27;20043;-81
2023/10/08 08:21:32;;;;;;;7.85;0.90;;;15.20;99.90;;;;;;4222281;28;20111;-81
2023/10/08 08:23:33;;;;;;;9.23;1.00;;;15.30;99.90;;;;;;4238202;27;20048;-81
2023/10/08 08:25:46;;;;;;;6.25;0.80;;;15.30;99.90;;;;;;4240922;27;20051;-80
2023/10/08 08:27:48;;;;;;;5.68;1.10;;;15.20;99.90;;;;;;4239831;27;20043;-80
2023/10/08 08:29:56;;;;;;;4.63;0.60;;;15.30;99.90;;;;;;4238315;27;20082;-80
2023/10/08 08:31:56;;;;;;;9.73;0.90;;;15.20;99.90;;;;;;4223300;28;20039;-80
2023/10/08 08:34:31;;;;;;;5.45;1.63;;;15.20;99.90;;;;;;4237050;27;20056;-81
2023/10/08 08:36:27;;;;;;;4.70;1.10;;;15.20;99.90;;;;;;4210223;28;20540;-81
2023/10/08 08:38:32;;;;;;;7.38;0.90;;;15.50;99.90;;;;;;4232921;27;20039;-80
2023/10/08 08:40:32;;;;;;;6.88;1.33;;;15.20;99.90;;;;;;4236278;27;20074;-80
2023/10/08 08:42:35;;;;;;;7.60;0.88;;;15.20;99.90;;;;;;4241344;27;20378;-80
2023/10/08 08:44:47;;;;;;;8.40;0.88;;;15.20;99.90;;;;;;4237152;27;20047;-80
2023/10/08 08:46:49;;;;;;;5.72;0.98;;;15.20;99.90;;;;;;4239292;27;20043;-80
2023/10/08 08:48:52;;;;;;;10.75;1.48;;;15.20;99.90;;;;;;4239493;27;20035;-80
2023/10/08 08:50:55;;;;;;;6.65;1.10;;;15.20;99.90;;;;;;4238082;27;20153;-81
2023/10/08 08:52:58;;;;;;;7.22;1.00;;;15.20;99.90;;;;;;4222055;28;20043;-81
2023/10/08 08:55:03;;;;;;;6.30;1.40;;;15.30;99.90;;;;;;4237877;27;20055;-80
2023/10/08 08:57:06;;;;;;;7.97;0.90;;;15.40;99.90;;;;;;4247740;27;20047;-81
2023/10/08 08:59:11;;;;;;;6.20;0.80;;;15.30;99.90;;;;;;4236788;27;20043;-80
2023/10/08 09:01:14;;;;;;;8.02;0.82;;;15.50;99.90;;;;;;4242830;27;20087;-80
2023/10/08 09:03:15;;;;;;;8.20;1.10;;;15.80;99.90;;;;;;4235769;28;20506;-81
2023/10/08 09:05:25;;;;;;;8.90;1.10;;;15.90;99.90;;;;;;4236624;27;20063;-80
2023/10/08 09:07:26;;;;;;;6.45;0.90;;;16.10;99.90;;;;;;4234214;28;20144;-80
2023/10/08 09:09:33;;;;;;;4.22;0.68;;;16.10;99.90;;;;;;4244270;28;20047;-80
2023/10/08 09:11:41;;;;;;;7.25;1.67;;;16.20;99.90;;;;;;4232208;28;20474;-80
2023/10/08 09:13:43;;;;;;;10.45;1.30;;;16.30;99.90;;;;;;4231811;28;20462;-80
2023/10/08 09:15:43;;;;;;;7.10;1.00;;;16.50;99.90;;;;;;4252343;28;20047;-81
2023/10/08 09:17:45;;;;;;;7.30;1.80;;;17.20;99.90;;;;;;4235640;28;20575;-80
2023/10/08 09:19:45;;;;;;;9.98;1.88;;;17.70;99.90;;;;;;4232579;28;20039;-80
2023/10/08 09:22:08;;;;;;;5.07;0.88;;;17.90;99.90;;;;;;4231844;28;20047;-80
2023/10/08 09:24:18;;;;;;;5.70;1.00;;;18.70;99.90;;;;;;4249745;27;20134;-80
2023/10/08 09:26:23;;;;;;;8.60;1.80;;;19.40;99.90;;;;;;4250270;27;20047;-80
2023/10/08 09:28:25;;;;;;;5.40;0.75;;;20.00;99.90;;;;;;4246545;27;20082;-80
2023/10/08 09:30:28;;;;;;;4.57;0.70;;;20.00;99.90;;;;;;4251676;27;20092;-80
2023/10/08 09:32:30;;;;;;;5.65;0.88;;;19.60;99.90;;;;;;4230454;28;20040;-79
2023/10/08 09:34:31;;;;;;;9.13;1.42;;;19.20;99.90;;;;;;4250739;27;20047;-79
2023/10/08 09:36:33;;;;;;;5.28;0.90;;;19.00;99.90;;;;;;4252120;27;20045;-78
2023/10/08 09:38:34;;;;;;;4.82;1.17;;;18.80;99.90;;;;;;4251864;27;20524;-79
2023/10/08 09:40:41;;;;;;;2.58;0.70;;;18.60;99.90;;;;;;4251705;27;20039;-79
2023/10/08 09:42:43;;;;;;;4.18;0.95;;;18.50;99.90;;;;;;4251108;27;20046;-82
2023/10/08 09:44:44;;;;;;;7.63;1.10;;;18.50;99.90;;;;;;4251187;27;20364;-80
2023/10/08 09:46:52;;;;;;;7.43;0.85;;;18.50;99.90;;;;;;4236772;27;20054;-80
2023/10/08 09:48:59;;;;;;;4.05;0.75;;;18.50;99.90;;;;;;4242597;27;20043;-82
2023/10/08 09:51:01;;;;;;;7.32;1.15;;;18.70;99.90;;;;;;4240136;27;20047;-81
2023/10/08 09:53:20;;;;;;;7.75;1.63;;;18.80;99.90;;;;;;4243678;27;20074;-81
2023/10/08 09:55:21;;;;;;;5.55;1.00;;;18.90;99.90;;;;;;4237662;27;20043;-81
2023/10/08 09:57:26;;;;;;;5.50;0.88;;;18.80;99.90;;;;;;4246873;27;20046;-81
2023/10/08 09:59:29;;;;;;;4.28;0.70;;;18.70;99.90;;;;;;4236520;27;20040;-82
2023/10/08 10:01:32;;;;;;;6.47;1.00;;;18.60;99.90;;;;;;4228858;28;20059;-82
2023/10/08 10:03:36;;;;;;;12.07;1.00;;;18.30;99.90;;;;;;4219937;27;20495;-81
2023/10/08 10:05:36;;;;;;;6.35;1.30;;;18.20;99.90;;;;;;4250746;27;20468;-80
2023/10/08 10:07:41;;;;;;;7.20;1.40;;;18.10;99.90;;;;;;4246009;27;20046;-80
2023/10/08 10:09:45;;;;;;;11.25;1.85;;;18.10;99.90;;;;;;4249802;27;20467;-80
2023/10/08 10:11:52;;;;;;;4.00;0.98;;;18.10;99.90;;;;;;4250018;27;20039;-81
2023/10/08 10:14:01;;;;;;;4.53;0.93;;;18.20;99.90;;;;;;4247135;27;20157;-81
2023/10/08 10:16:07;;;;;;;6.05;0.80;;;18.20;99.90;;;;;;4250225;27;20114;-81
2023/10/08 10:18:15;;;;;;;6.40;1.38;;;18.20;99.90;;;;;;4250572;27;20035;-80
2023/10/08 10:20:16;;;;;;;6.60;1.00;;;18.10;99.90;;;;;;4226271;28;20047;-79
2023/10/08 10:22:32;;;;;;;6.38;0.90;;;18.00;99.90;;;;;;4249820;27;20088;-81
2023/10/08 10:24:41;;;;;;;18.60;2.45;;;18.10;99.90;;;;;;4232804;28;20051;-82
2023/10/08 10:26:46;;;;;;;7.28;1.10;;;18.20;99.90;;;;;;4250935;27;20051;-81
2023/10/08 10:29:07;;;;;;;8.05;1.35;;;18.10;99.90;;;;;;4250343;27;20117;-81
2023/10/08 10:31:19;;;;;;;4.75;0.90;;;18.20;99.90;;;;;;4244032;27;20036;-81
2023/10/08 10:33:20;;;;;;;8.23;0.93;;;18.30;99.90;;;;;;4221499;28;20071;-81
2023/10/08 10:35:20;;;;;;;9.95;1.10;;;18.30;99.90;;;;;;4232225;28;20040;-81
2023/10/08 10:37:24;;;;;;;4.25;1.23;;;18.40;99.90;;;;;;4215242;28;20040;-81
2023/10/08 10:39:26;;;;;;;7.20;1.00;;;18.50;99.90;;;;;;4233319;28;20044;-81
2023/10/08 10:41:27;;;;;;;5.45;0.85;;;18.60;99.90;;;;;;4215015;28;20091;-81
2023/10/08 10:43:39;;;;;;;6.00;1.08;;;18.70;99.90;;;;;;4234167;28;20503;-81
2023/10/08 10:45:43;;;;;;;2.75;0.70;;;18.80;99.90;;;;;;4235022;28;20040;-81
2023/10/08 10:47:45;;;;;;;3.47;1.20;;;18.70;99.90;;;;;;4215274;28;20044;-82
2023/10/08 10:51:57;;;;;;;7.95;1.08;;;18.60;99.90;;;;;;4232699;28;20120;-82
2023/10/08 10:54:07;;;;;;;5.80;1.00;;;18.70;99.90;;;;;;4215041;28;20085;-81
2023/10/08 10:56:11;;;;;;;6.30;0.90;;;18.60;99.90;;;;;;4249847;27;20039;-81
2023/10/08 10:58:11;;;;;;;3.80;0.90;;;18.60;99.90;;;;;;4250063;27;20051;-81
2023/10/08 11:00:46;;;;;;;2.95;0.80;;;18.60;99.90;;;;;;4249437;27;20071;-81
2023/10/08 11:02:42;;;;;;;5.25;0.93;;;18.60;99.90;;;;;;4235117;27;20380;-81
2023/10/08 11:04:47;;;;;;;4.53;1.25;;;18.50;99.90;;;;;;4249787;27;20047;-81
2023/10/08 11:06:51;;;;;;;5.38;0.88;;;18.40;99.90;;;;;;4247066;27;20039;-81
2023/10/08 11:08:53;;;;;;;5.75;1.08;;;18.40;99.90;;;;;;4234031;27;20032;-82
2023/10/08 11:10:58;;;;;;;6.10;0.98;;;18.30;99.90;;;;;;4232132;28;20468;-81
2023/10/08 11:13:02;;;;;;;2.60;0.80;;;18.20;99.90;;;;;;4242670;27;20042;-82
2023/10/08 11:15:05;;;;;;;4.60;0.82;;;18.20;99.90;;;;;;4248103;27;20061;-82
2023/10/08 11:17:22;;;;;;;6.15;1.00;;;18.10;99.90;;;;;;4232661;28;20043;-82
2023/10/08 11:19:23;;;;;;;9.95;1.10;;;17.80;99.90;;;;;;4232010;28;20458;-82
2023/10/08 11:21:25;;;;;;;4.03;0.60;;;17.80;99.90;;;;;;4232357;28;20046;-82
2023/10/08 11:23:59;;;;;;;7.53;0.93;;;17.70;99.90;;;;;;4232309;28;20448;-82
2023/10/08 11:26:05;;;;;;;7.40;0.93;;;17.60;99.90;;;;;;4233372;27;20040;-82
2023/10/08 11:28:11;;;;;;;3.03;0.73;;;17.60;99.90;;;;;;4241357;27;20492;-82
2023/10/08 11:30:17;;;;;;;8.57;1.02;;;17.80;99.90;;;;;;4231553;28;20050;-80